Time;durP1;ratioP1;P1;durP2;ratioP2;P2;SDS_P1;SDS_P2;PMS_P1;PMS_P2;Temp;Humidity;BMP_temperature;BMP_pressure;BME280_temperature;BME280_humidity;BME280_pressure;Samples;Min_cycle;Max_cycle;Signal;HPM_P1;HPM_P2
2021/12/06 00:00:20;;;;;;;54.43;22.50;;;2.80;99.90;;;0.65;100.00;98969.78;10336489;28;96646;-81
2021/12/06 00:05:26;;;;;;;75.40;25.60;;;2.70;99.90;;;0.64;100.00;98966.34;10332282;28;96535;-81
2021/12/06 00:10:29;;;;;;;72.30;25.60;;;2.70;99.90;;;0.62;100.00;98957.00;10312972;28;96664;-81
2021/12/06 00:15:33;;;;;;;66.63;26.57;;;2.70;99.90;;;0.57;100.00;98986.16;10335230;28;96559;-81
2021/12/06 00:20:37;;;;;;;75.00;26.90;;;2.70;99.90;;;0.57;100.00;98986.16;10335488;28;96597;-81
2021/12/06 00:25:40;;;;;;;67.77;23.50;;;2.60;99.90;;;0.58;100.00;98993.03;10336044;28;96472;-81
2021/12/06 00:30:42;;;;;;;58.10;22.90;;;2.70;99.90;;;0.57;100.00;98994.00;10334982;28;96479;-81
2021/12/06 00:35:46;;;;;;;55.80;22.73;;;2.70;99.90;;;0.56;100.00;98973.22;10350849;28;96585;-82
2021/12/06 00:40:50;;;;;;;55.20;21.60;;;2.60;99.90;;;0.57;100.00;98998.41;10336031;28;96533;-81
2021/12/06 00:45:53;;;;;;;64.00;24.23;;;2.70;99.90;;;0.58;100.00;99005.28;10334774;28;96593;-81
2021/12/06 00:50:56;;;;;;;78.93;29.83;;;2.70;99.90;;;0.58;100.00;98994.81;10335963;28;96778;-81
2021/12/06 00:55:59;;;;;;;61.63;22.57;;;2.70;99.90;;;0.57;100.00;99004.47;10303923;28;96565;-81
2021/12/06 01:01:04;;;;;;;50.63;20.50;;;2.70;99.90;;;0.57;100.00;99014.09;10263475;28;96533;-81
2021/12/06 01:06:11;;;;;;;67.10;23.17;;;2.70;99.90;;;0.57;100.00;99012.31;10292992;28;96531;-81
2021/12/06 01:11:15;;;;;;;60.93;20.90;;;2.70;99.90;;;0.58;100.00;99006.13;10280420;28;96513;-81
2021/12/06 01:16:19;;;;;;;50.23;18.50;;;2.70;99.90;;;0.59;100.00;99013.00;10293893;28;98058;-81
2021/12/06 01:21:37;;;;;;;52.07;19.57;;;2.70;99.90;;;0.61;100.00;98998.00;10317124;28;96488;-81
2021/12/06 01:42:32;;;;;;;63.33;24.70;;;2.80;99.90;;;0.67;100.00;98984.41;10267481;28;96571;-81
2021/12/06 01:47:41;;;;;;;60.53;24.50;;;2.80;99.90;;;0.69;100.00;98976.41;10293330;28;96572;-81
2021/12/06 01:52:50;;;;;;;74.23;24.53;;;2.80;99.90;;;0.69;100.00;98977.25;10274181;28;96605;-81
2021/12/06 01:57:56;;;;;;;43.63;19.00;;;2.80;99.90;;;0.70;100.00;98984.13;10343995;28;96524;-81
2021/12/06 02:02:59;;;;;;;58.83;23.37;;;2.80;99.90;;;0.69;100.00;98979.03;10308600;28;97150;-81
2021/12/06 02:08:04;;;;;;;51.60;20.60;;;2.80;99.90;;;0.69;100.00;98992.94;10314621;28;98296;-81
2021/12/06 02:13:09;;;;;;;54.03;19.33;;;2.80;99.90;;;0.69;100.00;98992.09;10331248;28;96557;-81
2021/12/06 02:18:29;;;;;;;43.20;19.50;;;2.80;99.90;;;0.69;100.00;98985.09;10333164;28;96585;-81
2021/12/06 02:23:33;;;;;;;54.27;20.93;;;2.80;99.90;;;0.70;100.00;98965.81;10332729;28;96959;-81
2021/12/06 02:28:36;;;;;;;47.70;19.80;;;2.80;99.90;;;0.68;100.00;98954.69;10332835;28;97250;-81
2021/12/06 02:33:39;;;;;;;46.00;19.07;;;2.80;99.90;;;0.68;100.00;98956.47;10289765;28;96658;-81
2021/12/06 02:38:44;;;;;;;35.13;15.33;;;2.80;99.90;;;0.67;100.00;98957.44;10322505;28;96607;-81
2021/12/06 02:43:48;;;;;;;19.67;10.40;;;2.80;99.90;;;0.67;100.00;98954.81;10332035;28;96718;-81
2021/12/06 02:48:52;;;;;;;22.70;10.80;;;2.80;99.90;;;0.64;100.00;98957.69;10332465;28;97511;-81
2021/12/06 02:53:56;;;;;;;20.17;10.13;;;2.70;99.90;;;0.62;100.00;98960.44;10329739;28;96500;-82
2021/12/06 02:59:05;;;;;;;14.90;8.20;;;2.70;99.90;;;0.63;100.00;98976.97;10333016;28;96576;-81
2021/12/06 03:04:09;;;;;;;18.97;9.47;;;2.70;99.90;;;0.63;100.00;98984.81;10330017;28;96615;-81
2021/12/06 03:09:17;;;;;;;17.87;9.10;;;2.70;99.90;;;0.64;100.00;98995.13;10330765;28;96760;-81
2021/12/06 03:14:29;;;;;;;21.93;10.47;;;2.70;99.90;;;0.64;100.00;98984.66;10331704;28;96730;-81
2021/12/06 03:19:34;;;;;;;20.40;9.07;;;2.70;99.90;;;0.66;100.00;98988.00;10329852;28;96697;-81
2021/12/06 03:24:38;;;;;;;20.87;9.87;;;2.70;99.90;;;0.68;100.00;98980.81;10312509;28;97989;-81
2021/12/06 03:29:42;;;;;;;22.63;9.87;;;2.70;99.90;;;0.70;100.00;98981.50;10331429;28;96433;-81
2021/12/06 03:34:45;;;;;;;17.17;8.87;;;2.80;99.90;;;0.71;100.00;98990.19;10329354;28;96776;-81
2021/12/06 03:39:49;;;;;;;22.43;10.27;;;2.80;99.90;;;0.71;100.00;98995.41;10330167;28;96621;-81
2021/12/06 03:44:54;;;;;;;21.37;10.03;;;2.80;99.90;;;0.72;100.00;99005.75;10330215;28;96465;-81
2021/12/06 03:49:58;;;;;;;16.73;9.23;;;2.80;99.90;;;0.74;100.00;99014.28;10331402;28;96546;-81
2021/12/06 03:55:05;;;;;;;29.93;14.10;;;2.80;99.90;;;0.74;100.00;99022.13;10335769;28;97074;-81
2021/12/06 04:00:09;;;;;;;66.80;23.17;;;2.90;99.90;;;0.75;100.00;99013.31;10319696;28;96597;-81
2021/12/06 04:05:12;;;;;;;67.10;25.67;;;2.90;99.90;;;0.75;100.00;99002.84;10337372;28;96471;-81
2021/12/06 04:10:15;;;;;;;79.90;27.83;;;2.90;99.90;;;0.74;100.00;98997.75;10336032;28;96505;-81
2021/12/06 04:15:18;;;;;;;66.13;23.97;;;2.90;99.90;;;0.74;100.00;98988.13;10318529;28;96576;-81
2021/12/06 04:20:22;;;;;;;43.60;19.37;;;2.90;99.90;;;0.75;100.00;99002.84;10336986;28;98080;-81
2021/12/06 04:25:25;;;;;;;49.37;23.37;;;2.90;99.90;;;0.76;100.00;98998.44;10335170;28;97060;-81
2021/12/06 04:30:28;;;;;;;41.17;21.13;;;2.90;99.90;;;0.75;100.00;99008.09;10335717;28;96682;-81
2021/12/06 04:35:34;;;;;;;43.10;19.33;;;2.90;99.90;;;0.75;100.00;99007.25;10335159;28;96480;-82
2021/12/06 04:40:37;;;;;;;23.10;11.70;;;2.90;99.90;;;0.73;100.00;99003.97;10317999;28;96708;-82
2021/12/06 04:45:41;;;;;;;21.00;10.77;;;2.80;99.90;;;0.69;100.00;99000.78;10335395;28;96890;-82
2021/12/06 04:50:44;;;;;;;16.00;8.57;;;2.80;99.90;;;0.69;100.00;99013.84;10335549;28;96448;-81
2021/12/06 04:56:22;;;;;;;11.57;6.90;;;2.80;99.90;;;0.69;100.00;99019.06;10342173;28;96643;-81
2021/12/06 05:01:28;;;;;;;14.30;7.53;;;2.80;99.90;;;0.71;100.00;99040.69;10322300;28;96499;-82
2021/12/06 05:06:38;;;;;;;12.13;7.43;;;2.80;99.90;;;0.69;100.00;99040.00;10318209;28;96469;-82
2021/12/06 05:11:43;;;;;;;9.50;5.37;;;2.80;99.90;;;0.69;100.00;99037.38;10335670;28;96818;-81
2021/12/06 05:16:46;;;;;;;14.73;6.50;;;2.80;99.90;;;0.66;100.00;99045.50;10334687;28;97380;-81
2021/12/06 05:21:49;;;;;;;17.97;7.93;;;2.70;99.90;;;0.66;100.00;99052.50;10335410;28;96562;-81
2021/12/06 05:26:52;;;;;;;19.10;8.53;;;2.70;99.90;;;0.70;100.00;99059.13;10333181;28;96589;-80
2021/12/06 05:31:57;;;;;;;26.97;16.40;;;2.80;99.90;;;0.68;100.00;99064.50;10333145;28;97807;-80
2021/12/06 05:37:04;;;;;;;23.67;12.40;;;2.80;99.90;;;0.66;100.00;99066.44;10333226;28;96446;-82
2021/12/06 05:42:12;;;;;;;18.50;10.33;;;2.70;99.90;;;0.63;100.00;99071.91;10333426;28;96562;-81
2021/12/06 05:47:16;;;;;;;16.73;8.13;;;2.70;99.90;;;0.55;100.00;99066.53;10331579;28;96574;-80
2021/12/06 05:52:19;;;;;;;13.97;7.03;;;2.70;99.90;;;0.51;100.00;99067.72;10296062;28;96703;-82
2021/12/06 05:57:22;;;;;;;12.83;7.37;;;2.60;99.90;;;0.47;100.00;99071.56;10333705;28;96596;-82
2021/12/06 06:02:25;;;;;;;16.17;9.07;;;2.50;99.90;;;0.47;100.00;99069.78;10332265;28;97142;-82
2021/12/06 06:07:28;;;;;;;20.83;10.83;;;2.50;99.90;;;0.48;100.00;99075.81;10332835;28;96534;-81
2021/12/06 06:12:32;;;;;;;14.63;7.87;;;2.60;99.90;;;0.47;100.00;99079.41;10332798;28;97438;-82
2021/12/06 06:17:41;;;;;;;26.60;15.23;;;2.60;99.90;;;0.47;100.00;99092.47;10323229;28;97846;-81
2021/12/06 06:22:44;;;;;;;31.37;15.90;;;2.60;99.90;;;0.45;100.00;99100.44;10334438;28;96906;-80
2021/12/06 06:27:49;;;;;;;29.53;14.13;;;2.60;99.90;;;0.47;100.00;99113.38;10332244;28;96582;-80
2021/12/06 06:32:52;;;;;;;25.20;13.13;;;2.50;99.90;;;0.46;100.00;99112.56;10331203;28;96751;-81
2021/12/06 06:37:55;;;;;;;19.67;11.10;;;2.60;99.90;;;0.47;100.00;99123.84;10311450;28;96782;-81
2021/12/06 06:42:58;;;;;;;13.17;7.10;;;2.60;99.90;;;0.48;100.00;99117.63;10331951;28;96614;-80
2021/12/06 06:48:01;;;;;;;13.53;7.33;;;2.50;99.90;;;0.48;100.00;99115.88;10334622;28;96964;-80
2021/12/06 06:53:05;;;;;;;13.77;8.10;;;2.60;99.90;;;0.50;100.00;99132.25;10330284;28;96596;-80
2021/12/06 06:58:08;;;;;;;12.60;7.00;;;2.60;99.90;;;0.50;100.00;99142.72;10331848;28;98134;-81
2021/12/06 07:03:14;;;;;;;13.57;7.73;;;2.50;99.90;;;0.53;100.00;99145.06;10332212;28;96834;-81
2021/12/06 07:08:17;;;;;;;15.63;8.10;;;2.60;99.90;;;0.58;100.00;99162.97;10328217;28;96816;-80
2021/12/06 07:13:21;;;;;;;15.70;8.33;;;2.60;99.90;;;0.61;100.00;99167.94;10312737;28;97075;-81
2021/12/06 07:18:24;;;;;;;18.50;9.67;;;2.60;99.90;;;0.63;100.00;99167.81;10331137;28;96520;-81
2021/12/06 07:23:27;;;;;;;20.70;10.00;;;2.60;99.90;;;0.62;100.00;99169.59;10313327;28;96418;-81
2021/12/06 07:28:31;;;;;;;21.73;10.97;;;2.60;99.90;;;0.64;100.00;99174.69;10332934;28;96451;-81
2021/12/06 07:33:37;;;;;;;23.47;11.90;;;2.60;99.90;;;0.62;100.00;99180.06;10337353;28;97909;-81
2021/12/06 07:38:42;;;;;;;30.90;14.27;;;2.60;99.90;;;0.63;100.00;99176.47;10336984;28;96631;-81
2021/12/06 07:43:46;;;;;;;25.03;12.07;;;2.60;99.90;;;0.67;100.00;99192.75;10339538;28;96636;-81
2021/12/06 07:48:52;;;;;;;33.93;14.80;;;2.70;99.90;;;0.71;100.00;99189.72;10339321;28;96579;-81
2021/12/06 07:53:57;;;;;;;27.83;13.40;;;2.70;99.90;;;0.76;100.00;99191.97;10341057;28;96670;-81
2021/12/06 07:59:01;;;;;;;26.47;12.83;;;2.80;99.90;;;0.78;100.00;99196.13;10336742;28;96603;-81
2021/12/06 08:04:04;;;;;;;33.57;15.17;;;2.80;99.90;;;0.78;100.00;99198.72;10336951;28;96606;-80
2021/12/06 08:09:08;;;;;;;30.57;14.83;;;2.80;99.90;;;0.76;100.00;99208.47;10337086;28;96854;-81
2021/12/06 08:14:11;;;;;;;58.23;27.37;;;2.80;99.90;;;0.75;100.00;99211.22;10349789;28;96559;-81
2021/12/06 08:19:14;;;;;;;44.03;21.00;;;2.70;99.90;;;0.72;100.00;99207.09;10347835;28;96584;-81
2021/12/06 08:24:17;;;;;;;47.57;20.10;;;2.70;99.90;;;0.72;100.00;99211.47;10335772;28;96479;-80
2021/12/06 08:29:22;;;;;;;35.77;16.13;;;2.70;99.90;;;0.72;100.00;99206.25;10335341;28;97951;-80
2021/12/06 08:34:25;;;;;;;31.93;14.07;;;2.70;99.90;;;0.75;100.00;99216.47;10336759;28;96521;-80
2021/12/06 08:39:28;;;;;;;31.27;14.03;;;2.70;99.90;;;0.77;100.00;99217.97;10335789;28;96604;-80
2021/12/06 08:44:31;;;;;;;40.87;16.77;;;2.70;99.90;;;0.82;100.00;99222.81;10336231;28;96470;-81
2021/12/06 08:49:34;;;;;;;34.93;15.27;;;2.80;99.90;;;0.86;100.00;99226.84;10367467;28;96520;-79
2021/12/06 08:54:37;;;;;;;30.17;13.43;;;2.80;99.90;;;0.96;100.00;99245.19;10315172;28;96625;-79
2021/12/06 08:59:40;;;;;;;31.20;14.27;;;2.90;99.90;;;1.03;100.00;99236.72;10314747;28;96564;-80
2021/12/06 09:04:44;;;;;;;37.47;16.60;;;3.00;99.90;;;1.09;100.00;99240.59;10295108;28;96391;-80
2021/12/06 09:09:49;;;;;;;37.67;16.67;;;3.10;99.90;;;1.11;100.00;99238.66;10287863;28;97737;-80
2021/12/06 09:14:57;;;;;;;37.53;17.00;;;3.10;99.90;;;1.11;100.00;99241.28;10313252;28;96637;-80
2021/12/06 09:20:00;;;;;;;40.27;18.10;;;3.00;99.90;;;1.13;100.00;99236.72;10289622;28;96707;-80
2021/12/06 09:25:07;;;;;;;34.00;15.17;;;3.10;99.90;;;1.27;100.00;99228.53;10282081;28;96636;-80
2021/12/06 09:30:14;;;;;;;33.10;15.70;;;3.20;99.90;;;1.50;100.00;99221.31;10282607;28;96602;-80
2021/12/06 09:35:23;;;;;;;33.80;16.73;;;3.30;99.90;;;1.76;100.00;99219.03;10260358;28;96755;-80
2021/12/06 09:40:29;;;;;;;27.70;14.90;;;3.60;99.90;;;2.12;100.00;99200.97;10287844;28;97953;-80
2021/12/06 09:45:34;;;;;;;23.27;13.03;;;3.90;99.90;;;2.39;100.00;99190.59;10282834;28;96576;-80
2021/12/06 09:50:49;;;;;;;26.50;13.93;;;4.10;99.90;;;2.63;100.00;99184.06;10281695;28;96709;-80
2021/12/06 09:55:55;;;;;;;20.23;11.87;;;4.40;99.90;;;2.83;100.00;99183.06;10325764;28;96409;-81
2021/12/06 10:01:07;;;;;;;18.57;11.27;;;4.60;99.90;;;3.04;100.00;99188.06;10354569;28;96612;-80
2021/12/06 10:06:11;;;;;;;16.27;10.33;;;4.80;99.90;;;3.12;99.30;99182.09;10350370;28;97320;-80
2021/12/06 10:11:18;;;;;;;16.50;9.23;;;4.90;99.90;;;3.12;98.44;99184.72;10332889;28;98059;-81
2021/12/06 10:16:23;;;;;;;29.77;20.97;;;5.00;99.90;;;3.15;98.50;99179.19;10331743;28;96615;-80
2021/12/06 10:21:29;;;;;;;15.73;9.80;;;5.00;99.90;;;3.25;98.48;99177.34;10333015;28;96434;-80
2021/12/06 10:26:32;;;;;;;17.73;10.77;;;5.10;99.90;;;3.36;98.36;99171.06;10332630;28;96501;-80
2021/12/06 10:31:43;;;;;;;16.77;9.77;;;5.20;99.90;;;3.40;97.61;99170.63;10331372;28;96498;-81
2021/12/06 10:36:46;;;;;;;14.57;9.17;;;5.30;99.90;;;3.44;97.02;99166.75;10332569;28;96800;-80
2021/12/06 10:41:52;;;;;;;17.30;10.10;;;5.30;99.90;;;3.59;96.66;99168.84;10332095;28;96577;-81
2021/12/06 10:46:55;;;;;;;14.03;8.87;;;5.40;99.90;;;3.75;95.89;99179.53;10306565;28;97800;-81
2021/12/06 10:51:58;;;;;;;15.40;8.57;;;5.60;99.90;;;3.98;95.56;99201.78;10327085;28;96915;-81
2021/12/06 10:57:03;;;;;;;11.03;7.23;;;5.80;99.90;;;4.09;94.05;99219.13;10314523;28;96538;-81
2021/12/06 11:02:12;;;;;;;14.27;8.80;;;5.90;99.90;;;3.85;90.91;99232.84;10336730;28;98271;-80
2021/12/06 11:07:15;;;;;;;15.07;9.50;;;5.80;99.90;;;3.51;91.18;99226.56;10306652;28;97430;-81
2021/12/06 11:12:20;;;;;;;15.50;9.97;;;5.50;99.90;;;3.19;91.45;99239.16;10309613;28;96574;-80
2021/12/06 11:17:23;;;;;;;21.60;12.60;;;5.20;99.90;;;3.11;91.95;99233.78;10349466;28;98293;-80
2021/12/06 11:22:26;;;;;;;15.43;9.20;;;5.10;99.90;;;3.06;92.29;99217.66;10329963;28;98217;-80
2021/12/06 11:27:38;;;;;;;11.23;7.37;;;5.00;99.90;;;3.05;92.43;99234.34;10338194;28;96453;-80
2021/12/06 11:32:54;;;;;;;11.75;6.95;;;5.00;99.90;;;3.09;92.21;99242.78;10346372;28;96664;-80
2021/12/06 11:38:03;;;;;;;10.80;6.90;;;5.00;99.90;;;3.19;92.43;99247.03;10338051;28;96516;-80
2021/12/06 11:43:13;;;;;;;12.97;7.03;;;5.10;99.90;;;3.33;92.16;99263.28;10337669;28;96594;-80
2021/12/06 11:48:24;;;;;;;14.80;8.23;;;5.20;99.90;;;3.49;92.16;99259.06;10337670;28;96501;-81
2021/12/06 11:53:35;;;;;;;13.48;8.02;;;5.30;99.90;;;3.64;91.40;99263.81;10337013;28;96868;-81
2021/12/06 11:58:43;;;;;;;12.75;8.57;;;5.50;99.90;;;3.70;90.56;99257.97;10318564;28;96575;-80
2021/12/06 12:03:51;;;;;;;10.57;6.43;;;5.60;99.90;;;3.67;89.55;99259.09;10326571;28;96482;-80
2021/12/06 12:09:02;;;;;;;11.13;6.07;;;5.60;99.90;;;3.62;88.80;99260.53;10336520;28;96567;-80
2021/12/06 12:14:11;;;;;;;10.90;6.47;;;5.60;99.90;;;3.53;88.54;99253.50;10326430;28;96828;-81
2021/12/06 12:19:14;;;;;;;10.53;6.13;;;5.40;99.90;;;3.42;87.69;99254.53;10329459;28;96603;-80
2021/12/06 12:24:17;;;;;;;10.57;6.70;;;5.40;99.90;;;3.31;87.76;99244.22;10328935;28;98236;-79
2021/12/06 12:29:26;;;;;;;9.67;6.57;;;5.30;99.90;;;3.27;88.15;99241.03;10334506;28;97264;-80
2021/12/06 12:34:37;;;;;;;9.37;6.17;;;5.20;99.90;;;3.17;87.29;99232.38;10343162;28;96879;-80
2021/12/06 12:39:42;;;;;;;11.53;6.43;;;5.10;99.90;;;3.10;87.60;99223.41;10340609;28;97390;-79
2021/12/06 12:44:51;;;;;;;9.57;5.80;;;5.00;99.90;;;2.98;86.67;99216.69;10336464;28;96539;-79
2021/12/06 12:50:10;;;;;;;9.13;5.67;;;4.90;99.90;;;2.84;87.06;99221.44;10335438;28;96602;-80
2021/12/06 12:55:34;;;;;;;11.60;5.93;;;4.80;99.90;;;2.74;87.28;99235.53;10323680;28;96743;-80
2021/12/06 13:01:01;;;;;;;11.23;6.40;;;4.70;99.90;;;2.65;88.09;99247.72;10333969;28;96444;-80
2021/12/06 13:06:18;;;;;;;11.60;6.90;;;4.60;99.90;;;2.56;87.76;99253.78;10320111;28;96674;-80
2021/12/06 13:11:29;;;;;;;11.87;6.43;;;4.50;99.90;;;2.48;88.02;99258.91;10335007;28;96435;-80
2021/12/06 13:16:48;;;;;;;11.98;6.40;;;4.50;99.90;;;2.40;88.11;99267.50;10334502;28;96583;-79
2021/12/06 13:22:10;;;;;;;10.23;5.77;;;4.40;99.90;;;2.32;88.27;99276.03;10333313;28;96588;-79
2021/12/06 13:27:23;;;;;;;9.90;6.17;;;4.30;99.90;;;2.29;88.40;99285.97;10333100;28;96545;-79
2021/12/06 13:32:43;;;;;;;9.37;5.60;;;4.30;99.90;;;2.23;88.59;99289.97;10335065;28;96492;-79
2021/12/06 13:38:10;;;;;;;10.53;6.00;;;4.20;99.90;;;2.19;88.72;99291.19;10317246;28;96636;-80
2021/12/06 13:43:19;;;;;;;9.97;5.73;;;4.20;99.90;;;2.15;88.72;99295.88;10335564;28;96464;-79
2021/12/06 13:48:43;;;;;;;5.57;3.60;;;4.20;99.90;;;2.10;89.04;99298.09;10590092;27;1872457;-80
2021/12/06 13:54:00;;;;;;;12.43;6.93;;;4.10;99.90;;;2.05;89.49;99300.28;10608707;27;96562;-80
2021/12/06 13:59:04;;;;;;;13.60;6.50;;;4.10;99.90;;;2.02;89.63;99303.16;10569032;27;96454;-81
2021/12/06 14:04:09;;;;;;;8.93;5.47;;;4.10;99.90;;;2.00;89.66;99305.09;10564826;27;96581;-80
2021/12/06 14:09:12;;;;;;;10.90;6.60;;;4.00;99.90;;;2.02;89.55;99310.19;10559492;27;96758;-80
2021/12/06 14:14:15;;;;;;;11.10;6.40;;;4.10;99.90;;;2.03;89.52;99324.94;10599541;27;97436;-80
2021/12/06 14:19:26;;;;;;;10.77;5.33;;;4.10;99.90;;;2.06;89.59;99329.94;10627854;27;96421;-81
2021/12/06 14:24:34;;;;;;;8.17;4.97;;;4.10;99.90;;;2.10;89.40;99332.16;10594477;27;96679;-81
2021/12/06 14:29:39;;;;;;;8.07;4.93;;;4.10;99.90;;;2.11;89.31;99333.00;10599806;27;96617;-81
2021/12/06 14:34:42;;;;;;;9.73;5.57;;;4.20;99.90;;;2.11;89.04;99344.31;10592197;27;96586;-81
2021/12/06 14:39:52;;;;;;;11.70;6.33;;;4.20;99.90;;;2.10;89.23;99332.16;10626811;27;96536;-81
2021/12/06 14:45:00;;;;;;;11.70;6.53;;;4.20;99.90;;;2.07;89.24;99344.69;10598612;27;96923;-81
2021/12/06 14:50:22;;;;;;;13.87;6.80;;;4.10;99.90;;;1.97;89.03;99335.97;10549273;27;96387;-81
2021/12/06 14:55:40;;;;;;;15.63;8.50;;;4.00;99.90;;;1.85;89.07;99328.22;10595559;27;97477;-81
2021/12/06 15:01:23;;;;;;;16.63;10.60;;;3.90;99.90;;;1.74;89.09;99330.97;10550699;27;96517;-81
2021/12/06 15:06:27;;;;;;;12.40;6.80;;;3.80;99.90;;;1.67;88.55;99329.00;10538196;27;96375;-79
2021/12/06 15:11:34;;;;;;;11.23;6.50;;;3.70;99.90;;;1.60;88.74;99341.78;10550542;27;98131;-81
2021/12/06 15:16:38;;;;;;;13.20;7.40;;;3.70;99.90;;;1.57;88.25;99339.44;10534164;27;97801;-79
2021/12/06 15:22:01;;;;;;;14.93;8.23;;;3.60;99.90;;;1.53;88.31;99340.66;10544369;27;96566;-79
2021/12/06 15:27:07;;;;;;;13.57;7.70;;;3.60;99.90;;;1.50;88.15;99339.16;10568776;27;96491;-81
2021/12/06 15:32:14;;;;;;;19.27;8.63;;;3.50;99.90;;;1.55;87.54;99343.97;10584651;27;96864;-79
2021/12/06 15:37:28;;;;;;;14.23;7.50;;;3.60;99.90;;;1.56;87.60;99350.84;10545627;27;97268;-81
2021/12/06 15:42:31;;;;;;;14.97;7.93;;;3.50;99.90;;;1.55;86.87;99349.19;10551568;27;98419;-81
2021/12/06 15:47:46;;;;;;;17.87;9.03;;;3.60;99.90;;;1.56;87.01;99346.47;10547718;27;98567;-80
2021/12/06 15:52:51;;;;;;;22.07;11.60;;;3.60;99.90;;;1.61;86.35;99348.69;10585150;27;96862;-80
2021/12/06 15:58:05;;;;;;;18.27;8.90;;;3.60;99.90;;;1.59;85.95;99342.75;10553430;27;96710;-80
2021/12/06 16:03:10;;;;;;;13.43;8.27;;;3.60;99.90;;;1.56;86.00;99348.22;10550705;27;96699;-80
2021/12/06 16:08:17;;;;;;;17.10;9.40;;;3.60;99.90;;;1.51;85.73;99353.88;10562798;27;97225;-80
2021/12/06 16:13:29;;;;;;;20.00;10.73;;;3.50;99.90;;;1.44;85.85;99365.00;10567348;27;96588;-80
2021/12/06 16:18:35;;;;;;;24.90;14.48;;;3.50;99.90;;;1.38;85.79;99368.13;10539667;27;98327;-80
2021/12/06 16:24:00;;;;;;;18.87;9.73;;;3.40;99.90;;;1.32;85.96;99391.28;10583186;27;96728;-79
2021/12/06 16:29:12;;;;;;;20.10;11.37;;;3.40;99.90;;;1.30;85.98;99384.47;10556405;27;96545;-80
2021/12/06 16:34:21;;;;;;;19.80;9.83;;;3.30;99.90;;;1.27;86.13;99393.44;10535671;27;96673;-79
2021/12/06 16:39:33;;;;;;;21.37;12.93;;;3.30;99.90;;;1.28;85.69;99392.47;10552524;27;96724;-80
2021/12/06 16:44:41;;;;;;;17.83;10.43;;;3.30;99.90;;;1.27;85.26;99417.00;10579597;27;97673;-79
2021/12/06 16:50:16;;;;;;;22.77;11.47;;;3.30;99.90;;;1.24;85.10;99432.94;10564928;27;96670;-80
2021/12/06 16:55:32;;;;;;;24.87;12.03;;;3.30;99.90;;;1.24;84.94;99434.72;10529934;27;96878;-81
2021/12/06 17:00:46;;;;;;;36.47;16.67;;;3.20;99.90;;;1.24;84.69;99459.13;10537931;27;96588;-81
2021/12/06 17:05:56;;;;;;;27.37;13.60;;;3.20;99.90;;;1.21;85.20;99461.16;10545960;27;96606;-81
2021/12/06 17:11:15;;;;;;;21.10;12.27;;;3.20;99.90;;;1.15;84.89;99466.91;10545979;27;96732;-81
2021/12/06 17:16:30;;;;;;;18.80;10.63;;;3.20;99.90;;;1.10;84.89;99472.50;10515043;27;96756;-80
2021/12/06 17:21:33;;;;;;;23.03;12.50;;;3.10;99.90;;;1.04;85.23;99460.75;10568425;27;96980;-80
2021/12/06 17:26:41;;;;;;;24.03;12.37;;;3.10;99.90;;;0.98;85.06;99469.09;10572857;27;98098;-80
2021/12/06 17:31:50;;;;;;;22.30;10.70;;;3.00;99.90;;;0.89;85.34;99463.78;10553402;27;96842;-80
2021/12/06 17:36:59;;;;;;;17.80;9.73;;;3.00;99.90;;;0.76;85.30;99467.38;10537596;27;96692;-80
2021/12/06 17:42:03;;;;;;;19.70;9.90;;;2.80;99.90;;;0.63;85.22;99469.31;10541885;27;96808;-78
2021/12/06 17:47:07;;;;;;;20.90;11.20;;;2.70;99.90;;;0.51;85.50;99467.69;10530594;27;96678;-78
2021/12/06 17:52:10;;;;;;;21.97;11.30;;;2.60;99.90;;;0.36;86.11;99467.13;10554994;27;98054;-80
2021/12/06 17:57:19;;;;;;;22.23;10.70;;;2.50;99.90;;;0.26;85.89;99467.00;10546791;27;96647;-80
2021/12/06 18:02:24;;;;;;;21.17;11.50;;;2.40;99.90;;;0.14;86.98;99481.03;10517575;27;96590;-80
2021/12/06 18:07:28;;;;;;;23.33;11.80;;;2.30;99.90;;;0.01;87.40;99484.72;10543439;27;96800;-80
2021/12/06 18:12:31;;;;;;;21.23;11.63;;;2.20;99.90;;;-0.08;87.81;99483.63;10528867;27;96499;-80
2021/12/06 18:17:34;;;;;;;21.23;11.23;;;2.10;99.90;;;-0.21;88.25;99483.75;10532228;27;96420;-80
2021/12/06 18:22:37;;;;;;;21.00;11.63;;;1.90;99.90;;;-0.29;89.06;99493.94;10537299;27;98285;-80
2021/12/06 18:27:41;;;;;;;23.43;12.57;;;1.80;99.90;;;-0.40;88.97;99489.53;10511452;27;96714;-80
2021/12/06 18:32:45;;;;;;;25.57;12.53;;;1.70;99.90;;;-0.47;89.46;99485.72;10550550;27;96328;-80
2021/12/06 18:37:50;;;;;;;28.13;13.33;;;1.70;99.90;;;-0.54;89.56;99492.31;10537257;27;96742;-80
2021/12/06 18:42:55;;;;;;;28.53;13.33;;;1.60;99.90;;;-0.64;90.10;99496.56;10526751;27;96578;-80
2021/12/06 18:48:07;;;;;;;25.07;12.37;;;1.50;99.90;;;-0.72;90.30;99493.69;10553647;27;96618;-80
2021/12/06 18:53:11;;;;;;;28.83;11.05;;;1.40;99.90;;;-0.82;90.89;99491.78;10555781;27;96617;-80
2021/12/06 18:58:14;;;;;;;27.10;13.70;;;1.30;99.90;;;-0.88;91.16;99494.84;10559066;27;96496;-80
2021/12/06 19:03:18;;;;;;;26.00;13.03;;;1.20;99.90;;;-0.93;91.25;99490.91;10568916;27;98140;-80
2021/12/06 19:08:21;;;;;;;26.60;14.37;;;1.20;99.90;;;-0.99;91.85;99493.94;10551251;27;96987;-80
2021/12/06 19:13:26;;;;;;;27.70;13.00;;;1.20;99.90;;;-1.05;91.69;99490.00;10521663;27;96534;-80
2021/12/06 19:18:30;;;;;;;26.03;12.63;;;1.10;99.90;;;-1.05;91.95;99490.00;10563609;27;96492;-80
2021/12/06 19:23:33;;;;;;;24.53;13.13;;;1.10;99.90;;;-1.04;92.05;99483.84;10545981;27;96484;-80
2021/12/06 19:28:37;;;;;;;24.73;12.30;;;1.10;99.90;;;-1.06;91.83;99480.53;10518031;27;96460;-80
2021/12/06 19:33:40;;;;;;;28.47;13.87;;;1.10;99.90;;;-1.10;91.96;99490.34;10564634;27;96616;-80
2021/12/06 19:38:43;;;;;;;27.50;13.07;;;1.10;99.90;;;-1.12;92.29;99492.22;10545674;27;96475;-80
2021/12/06 19:43:47;;;;;;;40.03;17.70;;;1.00;99.90;;;-1.13;92.01;99497.56;10549758;27;96552;-81
2021/12/06 19:48:52;;;;;;;29.23;14.03;;;1.00;99.90;;;-1.16;91.89;99505.59;10551830;27;96422;-80
2021/12/06 19:53:56;;;;;;;27.03;14.73;;;1.00;99.90;;;-1.19;92.33;99511.88;10551072;27;96500;-80
2021/12/06 19:59:02;;;;;;;26.57;13.80;;;1.00;99.90;;;-1.23;92.21;99515.63;10552068;27;96524;-80
2021/12/06 20:04:07;;;;;;;25.87;13.20;;;0.90;99.90;;;-1.26;92.19;99508.03;10552371;27;97633;-80
2021/12/06 20:09:12;;;;;;;28.43;13.83;;;0.90;99.90;;;-1.32;92.08;99515.44;10535778;27;97913;-80
2021/12/06 20:14:15;;;;;;;26.57;14.33;;;0.90;99.90;;;-1.40;92.57;99509.00;10532388;27;96369;-80
2021/12/06 20:19:18;;;;;;;26.97;12.43;;;0.80;99.90;;;-1.43;92.67;99509.25;10570337;27;96737;-79
2021/12/06 20:24:21;;;;;;;24.13;12.47;;;0.80;99.90;;;-1.44;92.50;99510.19;10554498;27;96507;-80
2021/12/06 20:29:24;;;;;;;22.07;12.10;;;0.80;99.90;;;-1.47;92.52;99505.19;10574601;27;96404;-80
2021/12/06 20:34:27;;;;;;;24.67;12.33;;;0.80;99.90;;;-1.44;92.52;99515.41;10537888;27;96428;-80
2021/12/06 20:39:30;;;;;;;25.70;12.60;;;0.70;99.90;;;-1.45;92.50;99505.88;10549312;27;96581;-79
2021/12/06 20:44:33;;;;;;;22.43;11.73;;;0.80;99.90;;;-1.41;92.60;99493.47;10552462;27;96569;-79
2021/12/06 20:49:37;;;;;;;22.87;12.20;;;0.80;99.90;;;-1.42;92.57;99482.22;10557122;27;96604;-80
2021/12/06 20:54:40;;;;;;;25.47;12.33;;;0.80;99.90;;;-1.43;92.40;99480.56;10537439;27;97061;-79
2021/12/06 20:59:43;;;;;;;28.70;12.70;;;0.80;99.90;;;-1.42;92.12;99494.44;10544707;27;96494;-80
2021/12/06 21:04:46;;;;;;;25.77;13.10;;;0.80;99.90;;;-1.43;92.48;99495.38;10534171;27;98268;-80
2021/12/06 21:09:55;;;;;;;27.93;12.83;;;0.80;99.90;;;-1.39;92.51;99505.47;10557908;27;96881;-79
2021/12/06 21:20:04;;;;;;;24.27;12.63;;;0.90;99.90;;;-1.39;92.15;99515.88;10568717;27;96575;-80
2021/12/06 21:25:08;;;;;;;23.80;12.43;;;0.80;99.90;;;-1.45;91.98;99524.13;10573537;27;96362;-80
2021/12/06 21:30:11;;;;;;;25.67;11.57;;;0.80;99.90;;;-1.51;92.29;99532.38;10546134;27;97639;-80